Terminal Aerodrome Forecast
Issued by NWS

Home | Current Version | Previous Version | Text Only | Print | Product List | Glossary On
Versions: 1 2 3 4 5 6 7 8 9 10 11 12 13 14 15 16 17 18 19 20 21 22 23 24 25 26 27
000
FTUS43 KDMX 251740 AAA
TAFMCW
TAF AMD
KMCW 251740Z 2518/2618 02008KT P6SM VCSH OVC060
     FM260000 07008KT P6SM VCSH OVC030
     FM260400 08007KT 5SM -SHRA OVC015
     FM260600 31008G15KT 5SM -SHRA OVC009
     FM261200 33010KT P6SM -SHRA OVC006
     FM261400 32012G19KT 4SM -SHRA OVC006=

USA.gov is the U.S. government's official web portal to all federal, state and local government web resources and services.